sensor_id;sensor_type;location;lat;lon;timestamp;P1;P4;P2;P0;N10;N4;N25;N1;N05;TS
82350;SPS30;71951;39.366;22.950;2023-09-30T06:20:21;12;;12;;;;;;;
82350;SPS30;71951;39.366;22.950;2023-09-30T06:23:49;8;;8;;;;;;;
82350;SPS30;71951;39.366;22.950;2023-09-30T06:27:16;9;;9;;;;;;;
82350;SPS30;71951;39.366;22.950;2023-09-30T06:30:43;9;;9;;;;;;;
82350;SPS30;71951;39.366;22.950;2023-09-30T06:34:10;7;;7;;;;;;;
82350;SPS30;71951;39.366;22.950;2023-09-30T06:37:37;8;;8;;;;;;;
82350;SPS30;71951;39.366;22.950;2023-09-30T06:41:06;7;;7;;;;;;;
82350;SPS30;71951;39.366;22.950;2023-09-30T06:44:38;8;;8;;;;;;;
82350;SPS30;71951;39.366;22.950;2023-09-30T06:48:05;8;;8;;;;;;;
82350;SPS30;71951;39.366;22.950;2023-09-30T06:51:32;7;;7;;;;;;;
82350;SPS30;71951;39.366;22.950;2023-09-30T06:54:58;7;;7;;;;;;;
82350;SPS30;71951;39.366;22.950;2023-09-30T06:58:25;6;;6;;;;;;;
82350;SPS30;71951;39.366;22.950;2023-09-30T07:01:51;7;;7;;;;;;;
82350;SPS30;71951;39.366;22.950;2023-09-30T07:05:18;8;;8;;;;;;;
82350;SPS30;71951;39.366;22.950;2023-09-30T07:08:45;8;;8;;;;;;;
82350;SPS30;71951;39.366;22.950;2023-09-30T07:12:12;8;;8;;;;;;;
82350;SPS30;71951;39.366;22.950;2023-09-30T07:15:38;10;;10;;;;;;;
82350;SPS30;71951;39.366;22.950;2023-09-30T07:19:05;16;;12;;;;;;;
82350;SPS30;71951;39.366;22.950;2023-09-30T07:22:32;8;;7;;;;;;;
82350;SPS30;71951;39.366;22.950;2023-09-30T07:25:59;9;;9;;;;;;;
82350;SPS30;71951;39.366;22.950;2023-09-30T07:29:26;9;;8;;;;;;;
82350;SPS30;71951;39.366;22.950;2023-09-30T07:32:53;12;;12;;;;;;;
82350;SPS30;71951;39.366;22.950;2023-09-30T07:39:45;8;;8;;;;;;;
82350;SPS30;71951;39.366;22.950;2023-09-30T07:43:12;8;;8;;;;;;;
82350;SPS30;71951;39.366;22.950;2023-09-30T07:46:38;8;;8;;;;;;;
82350;SPS30;71951;39.366;22.950;2023-09-30T07:50:05;9;;9;;;;;;;
82350;SPS30;71951;39.366;22.950;2023-09-30T07:53:32;8;;7;;;;;;;
82350;SPS30;71951;39.366;22.950;2023-09-30T07:56:59;7;;7;;;;;;;
82350;SPS30;71951;39.366;22.950;2023-09-30T08:00:25;9;;9;;;;;;;
82350;SPS30;71951;39.366;22.950;2023-09-30T08:03:52;10;;10;;;;;;;
82350;SPS30;71951;39.366;22.950;2023-09-30T08:07:18;9;;9;;;;;;;
82350;SPS30;71951;39.366;22.950;2023-09-30T08:10:45;8;;8;;;;;;;
82350;SPS30;71951;39.366;22.950;2023-09-30T08:14:11;8;;7;;;;;;;
82350;SPS30;71951;39.366;22.950;2023-09-30T08:17:38;8;;8;;;;;;;
82350;SPS30;71951;39.366;22.950;2023-09-30T08:21:04;8;;7;;;;;;;
82350;SPS30;71951;39.366;22.950;2023-09-30T08:24:35;8;;8;;;;;;;
82350;SPS30;71951;39.366;22.950;2023-09-30T08:28:01;8;;8;;;;;;;
82350;SPS30;71951;39.366;22.950;2023-09-30T08:31:28;8;;8;;;;;;;
82350;SPS30;71951;39.366;22.950;2023-09-30T08:34:56;8;;8;;;;;;;
82350;SPS30;71951;39.366;22.950;2023-09-30T08:38:22;8;;8;;;;;;;
82350;SPS30;71951;39.366;22.950;2023-09-30T08:41:49;9;;9;;;;;;;
82350;SPS30;71951;39.366;22.950;2023-09-30T08:45:16;8;;8;;;;;;;
82350;SPS30;71951;39.366;22.950;2023-09-30T08:48:44;16;;15;;;;;;;
82350;SPS30;71951;39.366;22.950;2023-09-30T08:52:11;10;;9;;;;;;;
82350;SPS30;71951;39.366;22.950;2023-09-30T08:55:39;9;;9;;;;;;;
82350;SPS30;71951;39.366;22.950;2023-09-30T08:59:07;9;;9;;;;;;;
82350;SPS30;71951;39.366;22.950;2023-09-30T09:02:37;10;;10;;;;;;;
82350;SPS30;71951;39.366;22.950;2023-09-30T09:06:04;9;;9;;;;;;;
82350;SPS30;71951;39.366;22.950;2023-09-30T09:09:30;8;;8;;;;;;;
82350;SPS30;71951;39.366;22.950;2023-09-30T09:12:57;7;;7;;;;;;;
82350;SPS30;71951;39.366;22.950;2023-09-30T09:16:24;8;;8;;;;;;;
82350;SPS30;71951;39.366;22.950;2023-09-30T09:19:58;8;;8;;;;;;;
82350;SPS30;71951;39.366;22.950;2023-09-30T09:23:25;7;;7;;;;;;;
82350;SPS30;71951;39.366;22.950;2023-09-30T09:26:52;7;;7;;;;;;;
82350;SPS30;71951;39.366;22.950;2023-09-30T09:30:18;8;;8;;;;;;;
82350;SPS30;71951;39.366;22.950;2023-09-30T09:33:46;7;;7;;;;;;;
82350;SPS30;71951;39.366;22.950;2023-09-30T09:37:13;8;;8;;;;;;;
82350;SPS30;71951;39.366;22.950;2023-09-30T09:40:40;8;;8;;;;;;;
82350;SPS30;71951;39.366;22.950;2023-09-30T09:44:07;8;;8;;;;;;;
82350;SPS30;71951;39.366;22.950;2023-09-30T09:47:34;8;;8;;;;;;;
82350;SPS30;71951;39.366;22.950;2023-09-30T09:51:01;8;;8;;;;;;;
82350;SPS30;71951;39.366;22.950;2023-09-30T09:54:28;8;;8;;;;;;;
82350;SPS30;71951;39.366;22.950;2023-09-30T09:57:55;8;;8;;;;;;;
82350;SPS30;71951;39.366;22.950;2023-09-30T10:01:24;9;;9;;;;;;;
82350;SPS30;71951;39.366;22.950;2023-09-30T10:04:53;8;;8;;;;;;;
82350;SPS30;71951;39.366;22.950;2023-09-30T10:08:20;9;;9;;;;;;;
82350;SPS30;71951;39.366;22.950;2023-09-30T10:11:57;8;;8;;;;;;;
82350;SPS30;71951;39.366;22.950;2023-09-30T10:15:39;8;;8;;;;;;;
82350;SPS30;71951;39.366;22.950;2023-09-30T10:19:07;9;;9;;;;;;;
82350;SPS30;71951;39.366;22.950;2023-09-30T10:22:34;10;;10;;;;;;;
82350;SPS30;71951;39.366;22.950;2023-09-30T10:26:13;9;;9;;;;;;;
82350;SPS30;71951;39.366;22.950;2023-09-30T10:29:40;8;;8;;;;;;;
82350;SPS30;71951;39.366;22.950;2023-09-30T10:33:07;9;;9;;;;;;;
82350;SPS30;71951;39.366;22.950;2023-09-30T10:36:35;9;;9;;;;;;;
82350;SPS30;71951;39.366;22.950;2023-09-30T10:40:03;9;;9;;;;;;;
82350;SPS30;71951;39.366;22.950;2023-09-30T10:43:29;8;;8;;;;;;;
82350;SPS30;71951;39.366;22.950;2023-09-30T10:46:57;8;;8;;;;;;;
82350;SPS30;71951;39.366;22.950;2023-09-30T10:54:22;9;;9;;;;;;;
82350;SPS30;71951;39.366;22.950;2023-09-30T10:57:50;10;;10;;;;;;;
82350;SPS30;71951;39.366;22.950;2023-09-30T11:01:17;8;;8;;;;;;;
82350;SPS30;71951;39.366;22.950;2023-09-30T11:04:45;10;;10;;;;;;;
82350;SPS30;71951;39.366;22.950;2023-09-30T11:08:12;8;;8;;;;;;;
82350;SPS30;71951;39.366;22.950;2023-09-30T11:11:43;9;;9;;;;;;;
82350;SPS30;71951;39.366;22.950;2023-09-30T11:15:10;8;;8;;;;;;;
82350;SPS30;71951;39.366;22.950;2023-09-30T11:18:36;8;;8;;;;;;;
82350;SPS30;71951;39.366;22.950;2023-09-30T11:22:03;8;;8;;;;;;;
82350;SPS30;71951;39.366;22.950;2023-09-30T11:25:34;8;;8;;;;;;;
82350;SPS30;71951;39.366;22.950;2023-09-30T11:29:04;8;;8;;;;;;;
82350;SPS30;71951;39.366;22.950;2023-09-30T11:32:31;10;;9;;;;;;;
82350;SPS30;71951;39.366;22.950;2023-09-30T11:35:59;9;;9;;;;;;;
82350;SPS30;71951;39.366;22.950;2023-09-30T11:39:27;9;;9;;;;;;;
82350;SPS30;71951;39.366;22.950;2023-09-30T11:43:10;8;;8;;;;;;;
82350;SPS30;71951;39.366;22.950;2023-09-30T11:46:52;9;;9;;;;;;;
82350;SPS30;71951;39.366;22.950;2023-09-30T11:50:19;9;;9;;;;;;;
82350;SPS30;71951;39.366;22.950;2023-09-30T11:53:46;8;;8;;;;;;;
82350;SPS30;71951;39.366;22.950;2023-09-30T11:57:12;8;;8;;;;;;;
82350;SPS30;71951;39.366;22.950;2023-09-30T12:00:40;8;;8;;;;;;;
82350;SPS30;71951;39.366;22.950;2023-09-30T12:04:07;8;;8;;;;;;;
82350;SPS30;71951;39.366;22.950;2023-09-30T12:07:34;8;;8;;;;;;;
82350;SPS30;71951;39.366;22.950;2023-09-30T12:11:00;7;;7;;;;;;;
82350;SPS30;71951;39.366;22.950;2023-09-30T12:14:27;10;;10;;;;;;;
82350;SPS30;71951;39.366;22.950;2023-09-30T12:17:54;9;;9;;;;;;;
82350;SPS30;71951;39.366;22.950;2023-09-30T12:21:20;9;;9;;;;;;;
82350;SPS30;71951;39.366;22.950;2023-09-30T12:24:47;38;;28;;;;;;;
82350;SPS30;71951;39.366;22.950;2023-09-30T12:28:13;9;;9;;;;;;;
82350;SPS30;71951;39.366;22.950;2023-09-30T12:31:40;12;;11;;;;;;;
82350;SPS30;71951;39.366;22.950;2023-09-30T12:35:07;9;;9;;;;;;;
82350;SPS30;71951;39.366;22.950;2023-09-30T12:38:33;8;;8;;;;;;;
82350;SPS30;71951;39.366;22.950;2023-09-30T12:42:00;16;;13;;;;;;;
82350;SPS30;71951;39.366;22.950;2023-09-30T12:45:26;9;;9;;;;;;;
82350;SPS30;71951;39.366;22.950;2023-09-30T12:48:53;8;;8;;;;;;;
82350;SPS30;71951;39.366;22.950;2023-09-30T12:52:19;9;;9;;;;;;;
82350;SPS30;71951;39.366;22.950;2023-09-30T12:55:46;8;;8;;;;;;;
82350;SPS30;71951;39.366;22.950;2023-09-30T12:59:13;9;;9;;;;;;;
82350;SPS30;71951;39.366;22.950;2023-09-30T13:02:39;12;;11;;;;;;;
82350;SPS30;71951;39.366;22.950;2023-09-30T13:06:06;9;;9;;;;;;;
82350;SPS30;71951;39.366;22.950;2023-09-30T13:09:32;9;;9;;;;;;;
82350;SPS30;71951;39.366;22.950;2023-09-30T13:12:59;10;;10;;;;;;;
82350;SPS30;71951;39.366;22.950;2023-09-30T13:16:25;9;;9;;;;;;;
82350;SPS30;71951;39.366;22.950;2023-09-30T13:19:52;10;;10;;;;;;;
82350;SPS30;71951;39.366;22.950;2023-09-30T13:23:19;8;;8;;;;;;;
82350;SPS30;71951;39.366;22.950;2023-09-30T13:26:46;8;;8;;;;;;;
82350;SPS30;71951;39.366;22.950;2023-09-30T13:30:13;10;;10;;;;;;;
82350;SPS30;71951;39.366;22.950;2023-09-30T13:33:39;10;;10;;;;;;;
82350;SPS30;71951;39.366;22.950;2023-09-30T13:37:06;11;;10;;;;;;;
82350;SPS30;71951;39.366;22.950;2023-09-30T13:40:33;12;;11;;;;;;;
82350;SPS30;71951;39.366;22.950;2023-09-30T13:43:59;13;;12;;;;;;;
82350;SPS30;71951;39.366;22.950;2023-09-30T13:47:26;11;;11;;;;;;;
82350;SPS30;71951;39.366;22.950;2023-09-30T13:50:52;12;;11;;;;;;;
82350;SPS30;71951;39.366;22.950;2023-09-30T13:54:19;14;;13;;;;;;;
82350;SPS30;71951;39.366;22.950;2023-09-30T13:57:45;11;;11;;;;;;;
82350;SPS30;71951;39.366;22.950;2023-09-30T14:01:12;11;;11;;;;;;;
82350;SPS30;71951;39.366;22.950;2023-09-30T14:04:39;10;;10;;;;;;;
82350;SPS30;71951;39.366;22.950;2023-09-30T14:08:06;9;;9;;;;;;;
82350;SPS30;71951;39.366;22.950;2023-09-30T14:11:32;10;;10;;;;;;;
82350;SPS30;71951;39.366;22.950;2023-09-30T14:14:59;10;;9;;;;;;;
82350;SPS30;71951;39.366;22.950;2023-09-30T14:18:26;10;;10;;;;;;;
82350;SPS30;71951;39.366;22.950;2023-09-30T14:21:52;9;;9;;;;;;;
82350;SPS30;71951;39.366;22.950;2023-09-30T14:25:19;8;;8;;;;;;;
82350;SPS30;71951;39.366;22.950;2023-09-30T14:28:45;8;;8;;;;;;;
82350;SPS30;71951;39.366;22.950;2023-09-30T14:32:12;10;;10;;;;;;;
82350;SPS30;71951;39.366;22.950;2023-09-30T14:35:38;10;;10;;;;;;;
82350;SPS30;71951;39.366;22.950;2023-09-30T14:39:05;9;;9;;;;;;;
82350;SPS30;71951;39.366;22.950;2023-09-30T14:42:31;9;;9;;;;;;;
82350;SPS30;71951;39.366;22.950;2023-09-30T14:46:00;9;;9;;;;;;;
82350;SPS30;71951;39.366;22.950;2023-09-30T14:49:27;10;;10;;;;;;;
82350;SPS30;71951;39.366;22.950;2023-09-30T14:52:54;9;;9;;;;;;;
82350;SPS30;71951;39.366;22.950;2023-09-30T14:56:21;9;;9;;;;;;;
82350;SPS30;71951;39.366;22.950;2023-09-30T14:59:47;9;;9;;;;;;;
82350;SPS30;71951;39.366;22.950;2023-09-30T15:03:14;10;;10;;;;;;;
82350;SPS30;71951;39.366;22.950;2023-09-30T15:06:40;9;;9;;;;;;;
82350;SPS30;71951;39.366;22.950;2023-09-30T15:10:08;9;;9;;;;;;;
82350;SPS30;71951;39.366;22.950;2023-09-30T15:13:34;9;;9;;;;;;;
82350;SPS30;71951;39.366;22.950;2023-09-30T15:17:01;9;;9;;;;;;;
82350;SPS30;71951;39.366;22.950;2023-09-30T15:20:27;9;;9;;;;;;;
82350;SPS30;71951;39.366;22.950;2023-09-30T15:23:54;10;;10;;;;;;;
82350;SPS30;71951;39.366;22.950;2023-09-30T15:27:20;9;;9;;;;;;;
82350;SPS30;71951;39.366;22.950;2023-09-30T15:30:50;9;;9;;;;;;;
82350;SPS30;71951;39.366;22.950;2023-09-30T15:34:16;9;;9;;;;;;;
82350;SPS30;71951;39.366;22.950;2023-09-30T15:37:43;9;;9;;;;;;;
82350;SPS30;71951;39.366;22.950;2023-09-30T15:41:10;9;;9;;;;;;;
82350;SPS30;71951;39.366;22.950;2023-09-30T15:44:38;11;;11;;;;;;;
82350;SPS30;71951;39.366;22.950;2023-09-30T15:48:05;10;;10;;;;;;;
82350;SPS30;71951;39.366;22.950;2023-09-30T15:51:31;10;;10;;;;;;;
82350;SPS30;71951;39.366;22.950;2023-09-30T15:54:58;10;;10;;;;;;;
82350;SPS30;71951;39.366;22.950;2023-09-30T15:58:24;11;;11;;;;;;;
82350;SPS30;71951;39.366;22.950;2023-09-30T16:01:51;10;;10;;;;;;;
82350;SPS30;71951;39.366;22.950;2023-09-30T16:05:17;11;;11;;;;;;;
82350;SPS30;71951;39.366;22.950;2023-09-30T16:08:44;12;;12;;;;;;;
82350;SPS30;71951;39.366;22.950;2023-09-30T16:12:10;10;;10;;;;;;;
82350;SPS30;71951;39.366;22.950;2023-09-30T16:15:37;10;;10;;;;;;;
82350;SPS30;71951;39.366;22.950;2023-09-30T16:19:04;11;;11;;;;;;;
82350;SPS30;71951;39.366;22.950;2023-09-30T16:22:31;11;;11;;;;;;;
82350;SPS30;71951;39.366;22.950;2023-09-30T16:25:58;11;;11;;;;;;;
82350;SPS30;71951;39.366;22.950;2023-09-30T16:29:24;12;;12;;;;;;;
82350;SPS30;71951;39.366;22.950;2023-09-30T16:32:51;12;;12;;;;;;;
82350;SPS30;71951;39.366;22.950;2023-09-30T16:36:17;13;;13;;;;;;;
82350;SPS30;71951;39.366;22.950;2023-09-30T16:39:43;13;;13;;;;;;;
82350;SPS30;71951;39.366;22.950;2023-09-30T16:43:10;14;;14;;;;;;;
82350;SPS30;71951;39.366;22.950;2023-09-30T16:46:37;12;;12;;;;;;;
82350;SPS30;71951;39.366;22.950;2023-09-30T16:50:03;12;;12;;;;;;;
82350;SPS30;71951;39.366;22.950;2023-09-30T16:53:31;13;;13;;;;;;;
82350;SPS30;71951;39.366;22.950;2023-09-30T16:56:57;13;;13;;;;;;;
82350;SPS30;71951;39.366;22.950;2023-09-30T17:00:24;12;;12;;;;;;;
82350;SPS30;71951;39.366;22.950;2023-09-30T17:03:50;11;;11;;;;;;;
82350;SPS30;71951;39.366;22.950;2023-09-30T17:07:17;13;;13;;;;;;;
82350;SPS30;71951;39.366;22.950;2023-09-30T17:10:43;11;;11;;;;;;;
82350;SPS30;71951;39.366;22.950;2023-09-30T17:14:10;11;;11;;;;;;;
82350;SPS30;71951;39.366;22.950;2023-09-30T17:17:37;12;;12;;;;;;;
82350;SPS30;71951;39.366;22.950;2023-09-30T17:21:03;12;;12;;;;;;;
82350;SPS30;71951;39.366;22.950;2023-09-30T17:24:30;14;;14;;;;;;;
82350;SPS30;71951;39.366;22.950;2023-09-30T17:27:57;16;;16;;;;;;;
82350;SPS30;71951;39.366;22.950;2023-09-30T17:31:23;16;;16;;;;;;;
82350;SPS30;71951;39.366;22.950;2023-09-30T17:34:50;17;;17;;;;;;;
82350;SPS30;71951;39.366;22.950;2023-09-30T17:38:16;20;;20;;;;;;;
82350;SPS30;71951;39.366;22.950;2023-09-30T17:41:43;21;;21;;;;;;;
82350;SPS30;71951;39.366;22.950;2023-09-30T17:45:10;21;;21;;;;;;;
82350;SPS30;71951;39.366;22.950;2023-09-30T17:48:36;23;;23;;;;;;;
82350;SPS30;71951;39.366;22.950;2023-09-30T17:52:03;22;;22;;;;;;;
82350;SPS30;71951;39.366;22.950;2023-09-30T17:55:30;22;;21;;;;;;;
82350;SPS30;71951;39.366;22.950;2023-09-30T17:59:01;19;;19;;;;;;;
82350;SPS30;71951;39.366;22.950;2023-09-30T18:02:27;20;;20;;;;;;;
82350;SPS30;71951;39.366;22.950;2023-09-30T18:05:54;20;;20;;;;;;;
82350;SPS30;71951;39.366;22.950;2023-09-30T18:09:30;19;;19;;;;;;;
82350;SPS30;71951;39.366;22.950;2023-09-30T18:12:56;20;;19;;;;;;;
82350;SPS30;71951;39.366;22.950;2023-09-30T18:16:23;20;;20;;;;;;;
82350;SPS30;71951;39.366;22.950;2023-09-30T18:19:50;21;;21;;;;;;;
82350;SPS30;71951;39.366;22.950;2023-09-30T18:23:16;20;;20;;;;;;;
82350;SPS30;71951;39.366;22.950;2023-09-30T18:26:43;20;;20;;;;;;;
82350;SPS30;71951;39.366;22.950;2023-09-30T18:30:10;20;;20;;;;;;;
82350;SPS30;71951;39.366;22.950;2023-09-30T18:33:36;18;;18;;;;;;;
82350;SPS30;71951;39.366;22.950;2023-09-30T18:37:03;18;;18;;;;;;;
82350;SPS30;71951;39.366;22.950;2023-09-30T18:40:29;18;;17;;;;;;;
82350;SPS30;71951;39.366;22.950;2023-09-30T18:43:56;17;;17;;;;;;;
82350;SPS30;71951;39.366;22.950;2023-09-30T18:47:23;18;;18;;;;;;;
82350;SPS30;71951;39.366;22.950;2023-09-30T18:50:49;19;;19;;;;;;;
82350;SPS30;71951;39.366;22.950;2023-09-30T18:54:16;19;;19;;;;;;;
82350;SPS30;71951;39.366;22.950;2023-09-30T18:57:43;20;;20;;;;;;;
82350;SPS30;71951;39.366;22.950;2023-09-30T19:01:09;21;;21;;;;;;;
82350;SPS30;71951;39.366;22.950;2023-09-30T19:04:36;22;;22;;;;;;;
82350;SPS30;71951;39.366;22.950;2023-09-30T19:08:02;21;;21;;;;;;;
82350;SPS30;71951;39.366;22.950;2023-09-30T19:11:30;20;;20;;;;;;;
82350;SPS30;71951;39.366;22.950;2023-09-30T19:14:56;17;;17;;;;;;;
82350;SPS30;71951;39.366;22.950;2023-09-30T19:18:23;17;;17;;;;;;;
82350;SPS30;71951;39.366;22.950;2023-09-30T19:21:49;16;;16;;;;;;;
82350;SPS30;71951;39.366;22.950;2023-09-30T19:25:16;13;;13;;;;;;;
82350;SPS30;71951;39.366;22.950;2023-09-30T19:28:43;13;;13;;;;;;;
82350;SPS30;71951;39.366;22.950;2023-09-30T19:32:09;14;;14;;;;;;;
82350;SPS30;71951;39.366;22.950;2023-09-30T19:35:37;12;;12;;;;;;;
82350;SPS30;71951;39.366;22.950;2023-09-30T19:39:04;14;;14;;;;;;;
82350;SPS30;71951;39.366;22.950;2023-09-30T19:42:30;14;;14;;;;;;;
82350;SPS30;71951;39.366;22.950;2023-09-30T19:45:57;15;;15;;;;;;;
82350;SPS30;71951;39.366;22.950;2023-09-30T19:49:24;16;;16;;;;;;;
82350;SPS30;71951;39.366;22.950;2023-09-30T19:52:51;16;;16;;;;;;;
82350;SPS30;71951;39.366;22.950;2023-09-30T19:56:17;15;;15;;;;;;;
82350;SPS30;71951;39.366;22.950;2023-09-30T19:59:44;17;;16;;;;;;;
82350;SPS30;71951;39.366;22.950;2023-09-30T20:03:10;17;;17;;;;;;;
82350;SPS30;71951;39.366;22.950;2023-09-30T20:06:37;17;;17;;;;;;;
82350;SPS30;71951;39.366;22.950;2023-09-30T20:10:04;18;;18;;;;;;;
82350;SPS30;71951;39.366;22.950;2023-09-30T20:13:32;16;;15;;;;;;;
82350;SPS30;71951;39.366;22.950;2023-09-30T20:16:58;15;;15;;;;;;;
82350;SPS30;71951;39.366;22.950;2023-09-30T20:20:25;15;;15;;;;;;;
82350;SPS30;71951;39.366;22.950;2023-09-30T20:23:52;16;;15;;;;;;;
82350;SPS30;71951;39.366;22.950;2023-09-30T20:27:18;15;;15;;;;;;;
82350;SPS30;71951;39.366;22.950;2023-09-30T20:30:45;16;;16;;;;;;;
82350;SPS30;71951;39.366;22.950;2023-09-30T20:34:11;16;;16;;;;;;;
82350;SPS30;71951;39.366;22.950;2023-09-30T20:37:38;16;;16;;;;;;;
82350;SPS30;71951;39.366;22.950;2023-09-30T20:41:05;16;;16;;;;;;;
82350;SPS30;71951;39.366;22.950;2023-09-30T20:44:32;15;;15;;;;;;;
82350;SPS30;71951;39.366;22.950;2023-09-30T20:47:58;16;;16;;;;;;;
82350;SPS30;71951;39.366;22.950;2023-09-30T20:51:25;16;;16;;;;;;;
82350;SPS30;71951;39.366;22.950;2023-09-30T20:54:51;16;;15;;;;;;;
82350;SPS30;71951;39.366;22.950;2023-09-30T20:58:18;16;;16;;;;;;;
82350;SPS30;71951;39.366;22.950;2023-09-30T21:01:45;16;;16;;;;;;;
82350;SPS30;71951;39.366;22.950;2023-09-30T21:05:13;17;;17;;;;;;;
82350;SPS30;71951;39.366;22.950;2023-09-30T21:08:39;16;;16;;;;;;;
82350;SPS30;71951;39.366;22.950;2023-09-30T21:12:06;17;;16;;;;;;;
82350;SPS30;71951;39.366;22.950;2023-09-30T21:15:32;15;;15;;;;;;;
82350;SPS30;71951;39.366;22.950;2023-09-30T21:18:59;15;;15;;;;;;;
82350;SPS30;71951;39.366;22.950;2023-09-30T21:22:26;15;;15;;;;;;;
82350;SPS30;71951;39.366;22.950;2023-09-30T21:25:52;15;;15;;;;;;;
82350;SPS30;71951;39.366;22.950;2023-09-30T21:29:19;15;;15;;;;;;;
82350;SPS30;71951;39.366;22.950;2023-09-30T21:32:46;16;;16;;;;;;;
82350;SPS30;71951;39.366;22.950;2023-09-30T21:36:12;15;;15;;;;;;;
82350;SPS30;71951;39.366;22.950;2023-09-30T21:39:39;17;;17;;;;;;;
82350;SPS30;71951;39.366;22.950;2023-09-30T21:43:06;18;;18;;;;;;;
82350;SPS30;71951;39.366;22.950;2023-09-30T21:46:32;20;;20;;;;;;;
82350;SPS30;71951;39.366;22.950;2023-09-30T21:49:59;18;;18;;;;;;;
82350;SPS30;71951;39.366;22.950;2023-09-30T21:53:26;18;;18;;;;;;;
82350;SPS30;71951;39.366;22.950;2023-09-30T21:56:52;17;;17;;;;;;;
82350;SPS30;71951;39.366;22.950;2023-09-30T22:00:19;18;;17;;;;;;;
82350;SPS30;71951;39.366;22.950;2023-09-30T22:03:45;18;;18;;;;;;;
82350;SPS30;71951;39.366;22.950;2023-09-30T22:07:12;18;;18;;;;;;;
82350;SPS30;71951;39.366;22.950;2023-09-30T22:10:39;18;;17;;;;;;;
82350;SPS30;71951;39.366;22.950;2023-09-30T22:14:06;19;;19;;;;;;;
82350;SPS30;71951;39.366;22.950;2023-09-30T22:17:33;17;;17;;;;;;;
82350;SPS30;71951;39.366;22.950;2023-09-30T22:20:59;18;;18;;;;;;;
82350;SPS30;71951;39.366;22.950;2023-09-30T22:24:26;17;;17;;;;;;;
82350;SPS30;71951;39.366;22.950;2023-09-30T22:27:53;19;;18;;;;;;;
82350;SPS30;71951;39.366;22.950;2023-09-30T22:31:19;18;;17;;;;;;;
82350;SPS30;71951;39.366;22.950;2023-09-30T22:34:46;16;;16;;;;;;;
82350;SPS30;71951;39.366;22.950;2023-09-30T22:38:13;15;;15;;;;;;;
82350;SPS30;71951;39.366;22.950;2023-09-30T22:41:39;14;;14;;;;;;;
82350;SPS30;71951;39.366;22.950;2023-09-30T22:45:06;16;;15;;;;;;;
82350;SPS30;71951;39.366;22.950;2023-09-30T22:48:33;15;;15;;;;;;;
82350;SPS30;71951;39.366;22.950;2023-09-30T22:51:59;15;;15;;;;;;;
82350;SPS30;71951;39.366;22.950;2023-09-30T22:55:26;13;;13;;;;;;;
82350;SPS30;71951;39.366;22.950;2023-09-30T22:58:52;14;;14;;;;;;;
82350;SPS30;71951;39.366;22.950;2023-09-30T23:02:19;15;;15;;;;;;;
82350;SPS30;71951;39.366;22.950;2023-09-30T23:05:46;14;;14;;;;;;;
82350;SPS30;71951;39.366;22.950;2023-09-30T23:09:12;13;;13;;;;;;;
82350;SPS30;71951;39.366;22.950;2023-09-30T23:12:38;14;;14;;;;;;;
82350;SPS30;71951;39.366;22.950;2023-09-30T23:16:06;14;;14;;;;;;;
82350;SPS30;71951;39.366;22.950;2023-09-30T23:19:33;13;;13;;;;;;;
82350;SPS30;71951;39.366;22.950;2023-09-30T23:22:59;14;;14;;;;;;;
82350;SPS30;71951;39.366;22.950;2023-09-30T23:26:26;14;;14;;;;;;;
82350;SPS30;71951;39.366;22.950;2023-09-30T23:29:52;15;;14;;;;;;;
82350;SPS30;71951;39.366;22.950;2023-09-30T23:33:19;15;;14;;;;;;;
82350;SPS30;71951;39.366;22.950;2023-09-30T23:36:45;15;;15;;;;;;;
82350;SPS30;71951;39.366;22.950;2023-09-30T23:40:12;14;;14;;;;;;;
82350;SPS30;71951;39.366;22.950;2023-09-30T23:43:38;14;;14;;;;;;;
82350;SPS30;71951;39.366;22.950;2023-09-30T23:47:05;14;;14;;;;;;;
82350;SPS30;71951;39.366;22.950;2023-09-30T23:50:32;14;;14;;;;;;;
82350;SPS30;71951;39.366;22.950;2023-09-30T23:53:58;13;;13;;;;;;;
82350;SPS30;71951;39.366;22.950;2023-09-30T23:57:25;14;;14;;;;;;;
